createdAt,value
2022-10-17T00:01:38.846Z,96204.66
2022-10-17T00:04:21.907Z,96211.13
2022-10-17T00:07:05.108Z,96212.75
2022-10-17T00:09:48.116Z,96205.19
2022-10-17T00:12:31.105Z,96210.50
2022-10-17T00:15:19.111Z,96206.16
2022-10-17T00:18:02.496Z,96207.59
2022-10-17T00:20:45.481Z,96211.97
2022-10-17T00:23:30.433Z,96211.00
2022-10-17T00:26:13.833Z,96214.19
2022-10-17T00:28:56.935Z,96206.81
2022-10-17T00:31:41.427Z,96212.09
2022-10-17T00:34:24.999Z,96215.97
2022-10-17T00:37:08.024Z,96212.63
2022-10-17T00:39:51.199Z,96215.19
2022-10-17T00:42:34.239Z,96219.72
2022-10-17T00:45:22.504Z,96213.09
2022-10-17T00:48:10.698Z,96227.78
2022-10-17T00:50:53.898Z,96232.13
2022-10-17T00:53:38.313Z,96232.47
2022-10-17T00:56:22.497Z,96223.94
2022-10-17T01:01:55.416Z,96228.75
2022-10-17T01:04:42.567Z,96228.97
2022-10-17T01:07:25.621Z,96226.69
2022-10-17T01:10:10.223Z,96223.00
2022-10-17T01:13:05.610Z,96222.66
2022-10-17T01:15:58.735Z,96227.81
2022-10-17T01:18:54.332Z,96228.75
2022-10-17T01:21:50.972Z,96218.78
2022-10-17T01:25:12.583Z,96217.81
2022-10-17T01:28:15.733Z,96223.78
2022-10-17T01:31:08.312Z,96226.81
2022-10-17T01:34:01.689Z,96218.41
2022-10-17T01:36:51.812Z,96219.06
2022-10-17T01:39:45.630Z,96212.28
2022-10-17T01:42:37.763Z,96231.00
2022-10-17T01:45:26.781Z,96229.72
2022-10-17T01:48:17.553Z,96238.72
2022-10-17T01:51:07.924Z,96237.09
2022-10-17T01:53:56.210Z,96240.03
2022-10-17T01:56:41.735Z,96231.31
2022-10-17T01:59:28.301Z,96247.94
2022-10-17T02:02:14.030Z,96242.41
2022-10-17T02:04:59.007Z,96247.41
2022-10-17T02:07:42.539Z,96247.94
2022-10-17T02:10:33.882Z,96241.81
2022-10-17T02:13:27.193Z,96248.06
2022-10-17T02:16:28.557Z,96233.88
2022-10-17T02:19:28.902Z,96245.38
2022-10-17T02:22:22.098Z,96253.41
2022-10-17T02:25:15.429Z,96248.75
2022-10-17T02:28:07.681Z,96233.88
2022-10-17T02:30:56.840Z,96251.16
2022-10-17T02:33:46.097Z,96247.56
2022-10-17T02:36:34.055Z,96253.22
2022-10-17T02:39:21.415Z,96255.50
2022-10-17T02:42:07.744Z,96257.06
2022-10-17T02:44:51.251Z,96260.31
2022-10-17T02:47:38.181Z,96255.13
2022-10-17T02:53:18.690Z,96266.56
2022-10-17T02:56:10.057Z,96270.91
2022-10-17T02:58:58.629Z,96271.72
2022-10-17T03:01:42.238Z,96271.88
2022-10-17T03:04:25.319Z,96283.31
2022-10-17T03:07:08.335Z,96280.41
2022-10-17T03:09:51.343Z,96281.03
2022-10-17T03:12:35.882Z,96294.38
2022-10-17T03:15:19.006Z,96294.91
2022-10-17T03:18:02.078Z,96288.66
2022-10-17T03:20:45.091Z,96296.22
2022-10-17T03:23:28.081Z,96297.53
2022-10-17T03:26:11.277Z,96294.28
2022-10-17T03:28:55.722Z,96283.31
2022-10-17T03:31:38.784Z,96287.84
2022-10-17T03:34:21.933Z,96295.72
2022-10-17T03:37:05.312Z,96291.78
2022-10-17T03:39:48.274Z,96289.81
2022-10-17T03:42:32.869Z,96300.28
2022-10-17T03:45:17.438Z,96301.78
2022-10-17T03:48:00.552Z,96298.25
2022-10-17T03:50:43.561Z,96307.13
2022-10-17T03:53:26.569Z,96300.88
2022-10-17T03:56:13.999Z,96317.44
2022-10-17T03:58:57.433Z,96309.56
2022-10-17T04:01:42.004Z,96307.25
2022-10-17T04:04:25.130Z,96320.75
2022-10-17T04:07:08.113Z,96312.19
2022-10-17T04:09:51.119Z,96323.00
2022-10-17T04:12:34.137Z,96315.56
2022-10-17T04:15:17.171Z,96319.09
2022-10-17T04:18:01.590Z,96323.59
2022-10-17T04:20:44.630Z,96321.50
2022-10-17T04:23:27.631Z,96322.78
2022-10-17T04:26:10.706Z,96327.13
2022-10-17T04:28:54.075Z,96326.75
2022-10-17T04:31:37.098Z,96323.06
2022-10-17T04:34:21.496Z,96324.69
2022-10-17T04:37:04.490Z,96322.25
2022-10-17T04:39:47.550Z,96330.13
2022-10-17T04:42:31.081Z,96326.75
2022-10-17T04:45:14.578Z,96333.44
2022-10-17T04:47:57.598Z,96332.63
2022-10-17T04:50:41.969Z,96336.69
2022-10-17T04:53:25.561Z,96330.53
2022-10-17T04:56:13.138Z,96332.88
2022-10-17T04:58:56.169Z,96340.94
2022-10-17T05:01:39.182Z,96344.69
2022-10-17T05:04:24.714Z,96348.88
2022-10-17T05:07:09.493Z,96348.59
2022-10-17T05:09:52.527Z,96352.13
2022-10-17T05:12:35.556Z,96354.16
2022-10-17T05:15:18.720Z,96363.56
2022-10-17T05:18:01.775Z,96356.84
2022-10-17T05:20:44.763Z,96363.41
2022-10-17T05:23:30.922Z,96366.53
2022-10-17T05:26:14.725Z,96372.63
2022-10-17T05:28:58.799Z,96377.22
2022-10-17T05:31:42.064Z,96372.31
2022-10-17T05:34:25.654Z,96374.16
2022-10-17T05:37:08.642Z,96380.81
2022-10-17T05:39:53.081Z,96371.69
2022-10-17T05:42:36.261Z,96377.88
2022-10-17T05:45:19.261Z,96383.22
2022-10-17T05:48:02.274Z,96381.66
2022-10-17T05:50:45.318Z,96383.63
2022-10-17T05:53:31.083Z,96384.94
2022-10-17T05:56:15.523Z,96389.50
2022-10-17T05:59:01.083Z,96392.00
2022-10-17T06:01:44.296Z,96395.50
2022-10-17T06:04:27.929Z,96399.53
2022-10-17T06:07:10.960Z,96394.41
2022-10-17T06:09:53.972Z,96398.25
2022-10-17T06:12:38.354Z,96398.09
2022-10-17T06:15:21.363Z,96391.34
2022-10-17T06:18:04.321Z,96402.47
2022-10-17T06:20:47.407Z,96405.66
2022-10-17T06:23:30.446Z,96405.78
2022-10-17T06:26:13.521Z,96412.03
2022-10-17T06:28:57.935Z,96408.88
2022-10-17T06:34:24.165Z,96414.31
2022-10-17T06:37:07.233Z,96421.41
2022-10-17T06:39:50.209Z,96425.28
2022-10-17T06:42:33.778Z,96428.50
2022-10-17T06:45:18.314Z,96427.50
2022-10-17T06:48:02.942Z,96417.16
2022-10-17T06:50:45.961Z,96427.06
2022-10-17T06:53:30.258Z,96424.03
2022-10-17T06:56:13.246Z,96420.06
2022-10-17T06:58:56.301Z,96430.25
2022-10-17T07:01:43.181Z,96425.88
2022-10-17T07:04:29.222Z,96425.59
2022-10-17T07:07:12.255Z,96429.19
2022-10-17T07:09:55.253Z,96426.78
2022-10-17T07:12:38.272Z,96426.94
2022-10-17T07:15:21.301Z,96431.09
2022-10-17T07:18:06.013Z,96433.19
2022-10-17T07:20:54.914Z,96439.22
2022-10-17T07:23:39.889Z,96429.41
2022-10-17T07:26:22.971Z,96432.50
2022-10-17T07:29:06.606Z,96444.66
2022-10-17T07:31:50.349Z,96454.47
2022-10-17T07:34:34.728Z,96455.00
2022-10-17T07:37:17.751Z,96434.25
2022-10-17T07:40:00.811Z,96432.72
2022-10-17T07:42:43.776Z,96444.56
2022-10-17T07:45:27.743Z,96452.22
2022-10-17T07:48:10.772Z,96448.31
2022-10-17T07:50:55.182Z,96453.66
2022-10-17T07:53:38.930Z,96448.44
2022-10-17T07:56:24.725Z,96450.66
2022-10-17T07:59:09.375Z,96447.22
2022-10-17T08:01:52.881Z,96446.66
2022-10-17T08:04:36.876Z,96436.91
2022-10-17T08:07:26.828Z,96433.16
2022-10-17T08:10:13.847Z,96433.88
2022-10-17T08:12:57.619Z,96430.59
2022-10-17T08:15:40.683Z,96429.91
2022-10-17T08:18:24.009Z,96430.00
2022-10-17T08:21:08.430Z,96426.25
2022-10-17T08:23:52.950Z,96425.75
2022-10-17T08:26:39.285Z,96425.75
2022-10-17T08:29:25.637Z,96422.31
2022-10-17T08:32:10.212Z,96427.00
2022-10-17T08:34:53.731Z,96432.41
2022-10-17T08:37:36.743Z,96431.72
2022-10-17T08:40:24.273Z,96438.88
2022-10-17T08:43:33.321Z,96431.09
2022-10-17T08:46:19.355Z,96438.28
2022-10-17T08:49:07.576Z,96432.75
2022-10-17T08:51:57.170Z,96433.16
2022-10-17T08:54:46.079Z,96429.72
2022-10-17T08:57:30.856Z,96436.78
2022-10-17T09:00:18.581Z,96431.34
2022-10-17T09:03:15.502Z,96428.78
2022-10-17T09:06:12.087Z,96429.56
2022-10-17T09:09:06.644Z,96431.25
2022-10-17T09:12:00.140Z,96432.81
2022-10-17T09:15:24.284Z,96424.91
2022-10-17T09:18:16.674Z,96426.13
2022-10-17T09:21:12.544Z,96425.31
2022-10-17T09:24:09.003Z,96421.09
2022-10-17T09:26:54.011Z,96428.41
2022-10-17T09:29:42.922Z,96425.00
2022-10-17T09:32:27.290Z,96429.75
2022-10-17T09:35:15.499Z,96426.56
2022-10-17T09:37:59.861Z,96425.22
2022-10-17T09:40:43.083Z,96413.34
2022-10-17T09:43:26.702Z,96419.31
2022-10-17T09:46:16.812Z,96414.78
2022-10-17T09:49:04.612Z,96408.84
2022-10-17T09:51:49.956Z,96417.66
2022-10-17T09:54:42.684Z,96415.03
2022-10-17T09:57:26.417Z,96402.03
2022-10-17T10:00:23.059Z,96411.94
2022-10-17T10:03:18.873Z,96406.88
2022-10-17T10:06:05.392Z,96410.63
2022-10-17T10:08:55.240Z,96396.25
2022-10-17T10:11:50.309Z,96390.91
2022-10-17T10:14:35.722Z,96395.88
2022-10-17T10:17:39.598Z,96396.41
2022-10-17T10:20:29.014Z,96388.44
2022-10-17T10:23:17.461Z,96390.94
2022-10-17T10:26:05.328Z,96395.19
2022-10-17T10:28:54.953Z,96384.53
2022-10-17T10:31:40.844Z,96379.53
2022-10-17T10:34:27.785Z,96371.78
2022-10-17T10:37:19.733Z,96368.22
2022-10-17T10:40:05.100Z,96367.72
2022-10-17T10:42:52.749Z,96357.00
2022-10-17T10:45:48.736Z,96354.91
2022-10-17T10:48:35.651Z,96359.16
2022-10-17T10:51:24.397Z,96353.78
2022-10-17T10:54:15.930Z,96361.19
2022-10-17T10:57:02.957Z,96348.88
2022-10-17T10:59:58.325Z,96346.75
2022-10-17T11:02:48.714Z,96341.38
2022-10-17T11:05:43.201Z,96342.00
2022-10-17T11:08:31.274Z,96336.34
2022-10-17T11:11:23.869Z,96337.13
2022-10-17T11:14:13.853Z,96334.50
2022-10-17T11:17:07.281Z,96338.06
2022-10-17T11:19:57.504Z,96335.94
2022-10-17T11:22:45.578Z,96327.56
2022-10-17T11:25:35.321Z,96328.78
2022-10-17T11:28:19.873Z,96322.06
2022-10-17T11:31:07.282Z,96320.31
2022-10-17T11:33:58.851Z,96308.13
2022-10-17T11:36:45.305Z,96307.50
2022-10-17T11:39:43.257Z,96312.59
2022-10-17T11:42:31.855Z,96299.56
2022-10-17T11:45:19.530Z,96294.50
2022-10-17T11:48:05.894Z,96286.50
2022-10-17T11:54:10.151Z,96283.72
2022-10-17T11:57:01.484Z,96280.31
2022-10-17T11:59:58.813Z,96281.56
2022-10-17T12:02:49.555Z,96288.94
2022-10-17T12:05:42.751Z,96286.25
2022-10-17T12:08:34.777Z,96284.22
2022-10-17T12:11:34.673Z,96288.41
2022-10-17T12:14:41.922Z,96276.56
2022-10-17T12:17:39.012Z,96279.09
2022-10-17T12:20:36.698Z,96285.88
2022-10-17T12:23:29.357Z,96286.94
2022-10-17T12:26:12.353Z,96280.44
2022-10-17T12:28:55.552Z,96277.81
2022-10-17T12:31:39.029Z,96274.03
2022-10-17T12:34:25.440Z,96275.19
2022-10-17T12:37:12.227Z,96269.84
2022-10-17T12:39:56.644Z,96280.19
2022-10-17T12:42:52.026Z,96281.72
2022-10-17T12:45:52.830Z,96267.59
2022-10-17T12:49:02.571Z,96270.81
2022-10-17T12:52:17.677Z,96270.41
2022-10-17T12:55:14.665Z,96278.09
2022-10-17T12:58:01.330Z,96270.78
2022-10-17T13:01:11.592Z,96266.94
2022-10-17T13:03:56.076Z,96268.41
2022-10-17T13:06:46.246Z,96267.91
2022-10-17T13:09:31.420Z,96275.75
2022-10-17T13:12:21.434Z,96272.03
2022-10-17T13:15:07.970Z,96261.88
2022-10-17T13:17:59.455Z,96265.25
2022-10-17T13:20:42.661Z,96264.34
2022-10-17T13:23:26.408Z,96263.78
2022-10-17T13:26:16.516Z,96265.25
2022-10-17T13:29:05.926Z,96268.66
2022-10-17T13:31:54.850Z,96264.94
2022-10-17T13:34:37.878Z,96267.16
2022-10-17T13:37:20.986Z,96262.81
2022-10-17T13:40:30.715Z,96264.88
2022-10-17T13:43:17.665Z,96261.38
2022-10-17T13:46:25.307Z,96265.53
2022-10-17T13:49:17.986Z,96266.09
2022-10-17T13:52:02.974Z,96257.47
2022-10-17T13:54:48.909Z,96265.66
2022-10-17T13:57:33.401Z,96258.72
2022-10-17T14:00:22.972Z,96263.19
2022-10-17T14:03:07.587Z,96262.59
2022-10-17T14:08:59.295Z,96261.50
2022-10-17T14:11:44.250Z,96269.19
2022-10-17T14:14:28.130Z,96267.03
2022-10-17T14:17:15.555Z,96265.69
2022-10-17T14:23:22.325Z,96284.16
2022-10-17T14:26:15.489Z,96279.47
2022-10-17T14:29:07.525Z,96271.50
2022-10-17T14:31:53.571Z,96278.25
2022-10-17T14:34:38.514Z,96274.50
2022-10-17T14:37:33.404Z,96275.53
2022-10-17T14:40:18.779Z,96276.91
2022-10-17T14:43:07.491Z,96283.09
2022-10-17T14:45:50.725Z,96279.22
2022-10-17T14:48:34.553Z,96282.72
2022-10-17T14:51:19.068Z,96282.28
2022-10-17T14:54:18.927Z,96287.84
2022-10-17T14:57:15.912Z,96298.13
2022-10-17T14:59:59.368Z,96301.19
2022-10-17T15:02:42.373Z,96295.09
2022-10-17T15:05:25.415Z,96299.16
2022-10-17T15:08:14.749Z,96302.31
2022-10-17T15:10:59.151Z,96297.03
2022-10-17T15:13:45.585Z,96296.38
2022-10-17T15:16:32.793Z,96299.75
2022-10-17T15:19:15.798Z,96297.41
2022-10-17T15:21:58.817Z,96303.84
2022-10-17T15:24:42.767Z,96300.91
2022-10-17T15:27:29.749Z,96309.78
2022-10-17T15:30:21.774Z,96316.94
2022-10-17T15:33:05.690Z,96313.19
2022-10-17T15:35:49.056Z,96320.38
2022-10-17T15:38:32.068Z,96319.22
2022-10-17T15:41:15.473Z,96322.41
2022-10-17T15:44:00.279Z,96329.88
2022-10-17T15:46:44.391Z,96329.28
2022-10-17T15:49:27.386Z,96327.69
2022-10-17T15:52:10.483Z,96326.19
2022-10-17T15:54:53.758Z,96333.03
2022-10-17T15:57:41.479Z,96336.75
2022-10-17T16:00:26.052Z,96348.91
2022-10-17T16:03:09.085Z,96342.66
2022-10-17T16:05:52.111Z,96350.34
2022-10-17T16:08:35.163Z,96353.44
2022-10-17T16:11:20.828Z,96357.69
2022-10-17T16:14:06.322Z,96367.41
2022-10-17T16:16:51.047Z,96372.50
2022-10-17T16:19:34.055Z,96371.69
2022-10-17T16:22:25.981Z,96374.94
2022-10-17T16:25:19.534Z,96375.78
2022-10-17T16:28:03.428Z,96382.06
2022-10-17T16:30:46.541Z,96391.47
2022-10-17T16:33:31.726Z,96391.50
2022-10-17T16:36:15.124Z,96386.25
2022-10-17T16:38:58.110Z,96396.06
2022-10-17T16:41:41.182Z,96395.84
2022-10-17T16:44:24.197Z,96394.59
2022-10-17T16:47:07.174Z,96401.03
2022-10-17T16:49:51.579Z,96399.00
2022-10-17T16:52:34.617Z,96404.34
2022-10-17T16:55:19.315Z,96405.72
2022-10-17T16:58:02.651Z,96411.53
2022-10-17T17:00:45.731Z,96413.91
2022-10-17T17:03:28.845Z,96420.06
2022-10-17T17:06:16.293Z,96421.84
2022-10-17T17:08:59.392Z,96428.00
2022-10-17T17:11:42.377Z,96431.56
2022-10-17T17:14:25.377Z,96439.16
2022-10-17T17:17:15.360Z,96430.25
2022-10-17T17:20:08.319Z,96436.59
2022-10-17T17:22:52.879Z,96441.81
2022-10-17T17:25:36.174Z,96435.50
2022-10-17T17:28:19.167Z,96443.03
2022-10-17T17:31:02.750Z,96450.22
2022-10-17T17:33:47.113Z,96446.53
2022-10-17T17:36:32.916Z,96454.53
2022-10-17T17:39:17.378Z,96451.00
2022-10-17T17:42:00.459Z,96454.59
2022-10-17T17:44:43.430Z,96455.34
2022-10-17T17:47:30.253Z,96457.72
2022-10-17T17:50:13.484Z,96459.06
2022-10-17T17:52:56.542Z,96454.59
2022-10-17T17:55:41.232Z,96464.59
2022-10-17T17:58:24.244Z,96458.19
2022-10-17T18:01:14.293Z,96463.19
2022-10-17T18:04:00.087Z,96468.06
2022-10-17T18:06:43.164Z,96474.63
2022-10-17T18:09:26.167Z,96472.31
2022-10-17T18:12:10.593Z,96463.25
2022-10-17T18:14:53.722Z,96473.47
2022-10-17T18:17:37.860Z,96469.34
2022-10-17T18:20:20.940Z,96471.06
2022-10-17T18:23:04.331Z,96465.22
2022-10-17T18:25:54.835Z,96469.25
2022-10-17T18:31:28.628Z,96472.91
2022-10-17T18:34:11.745Z,96470.06
2022-10-17T18:36:54.938Z,96471.75
2022-10-17T18:39:37.951Z,96473.63
2022-10-17T18:42:20.938Z,96475.50
2022-10-17T18:45:06.458Z,96481.69
2022-10-17T18:47:52.648Z,96478.19
2022-10-17T18:50:35.688Z,96480.41
2022-10-17T18:53:18.701Z,96473.25
2022-10-17T18:56:03.352Z,96476.81
2022-10-17T18:58:46.927Z,96478.44
2022-10-17T19:01:31.519Z,96472.16
2022-10-17T19:04:14.908Z,96483.84
2022-10-17T19:06:57.945Z,96488.53
2022-10-17T19:09:40.957Z,96485.19
2022-10-17T19:12:23.957Z,96489.03
2022-10-17T19:15:07.577Z,96493.59
2022-10-17T19:17:52.071Z,96496.25
2022-10-17T19:20:35.094Z,96490.63
2022-10-17T19:23:18.109Z,96507.31
2022-10-17T19:26:03.921Z,96490.69
2022-10-17T19:28:47.771Z,96497.53
2022-10-17T19:31:32.958Z,96493.50
2022-10-17T19:34:18.075Z,96494.66
2022-10-17T19:37:01.111Z,96493.56
2022-10-17T19:39:44.161Z,96492.91
2022-10-17T19:42:27.301Z,96491.28
2022-10-17T19:45:11.140Z,96499.13
2022-10-17T19:47:54.214Z,96498.00
2022-10-17T19:50:41.269Z,96502.25
2022-10-17T19:53:25.265Z,96506.63
2022-10-17T19:56:09.559Z,96505.22
2022-10-17T19:58:54.066Z,96500.72
2022-10-17T20:01:38.996Z,96508.31
2022-10-17T20:04:24.087Z,96504.16
2022-10-17T20:07:09.797Z,96510.97
2022-10-17T20:09:52.818Z,96519.59
2022-10-17T20:12:35.907Z,96521.50
2022-10-17T20:15:19.027Z,96525.28
2022-10-17T20:18:02.287Z,96519.63
2022-10-17T20:20:45.391Z,96516.88
2022-10-17T20:23:29.818Z,96515.94
2022-10-17T20:26:33.224Z,96516.94
2022-10-17T20:29:23.651Z,96510.94
2022-10-17T20:32:07.011Z,96511.09
2022-10-17T20:34:50.073Z,96507.22
2022-10-17T20:37:39.891Z,96500.78
2022-10-17T20:40:35.577Z,96499.81
2022-10-17T20:43:18.938Z,96502.56
2022-10-17T20:46:15.561Z,96502.56
2022-10-17T20:49:06.393Z,96496.94
2022-10-17T20:51:49.396Z,96501.31
2022-10-17T20:54:32.483Z,96501.31
2022-10-17T20:57:16.850Z,96504.88
2022-10-17T20:59:59.951Z,96498.22
2022-10-17T21:02:42.984Z,96506.81
2022-10-17T21:05:26.197Z,96503.09
2022-10-17T21:08:09.466Z,96499.06
2022-10-17T21:10:52.477Z,96502.16
2022-10-17T21:13:36.946Z,96507.66
2022-10-17T21:16:20.417Z,96494.06
2022-10-17T21:19:04.582Z,96500.41
2022-10-17T21:21:48.075Z,96497.31
2022-10-17T21:24:32.236Z,96503.16
2022-10-17T21:27:16.989Z,96494.09
2022-10-17T21:30:01.486Z,96495.72
2022-10-17T21:32:51.689Z,96497.47
2022-10-17T21:35:35.063Z,96503.97
2022-10-17T21:38:18.103Z,96497.19
2022-10-17T21:41:01.061Z,96499.09
2022-10-17T21:43:44.685Z,96497.84
2022-10-17T21:46:29.971Z,96501.41
2022-10-17T21:49:14.608Z,96500.75
2022-10-17T21:51:58.377Z,96499.94
2022-10-17T21:54:41.363Z,96491.06
2022-10-17T21:57:24.379Z,96496.22
2022-10-17T22:00:08.243Z,96491.88
2022-10-17T22:02:52.701Z,96490.09
2022-10-17T22:05:35.833Z,96499.94
2022-10-17T22:08:18.858Z,96490.41
2022-10-17T22:11:07.240Z,96490.91
2022-10-17T22:13:55.019Z,96500.59
2022-10-17T22:16:39.669Z,96490.41
2022-10-17T22:19:25.919Z,96487.50
2022-10-17T22:22:08.978Z,96496.09
2022-10-17T22:24:52.050Z,96493.81
2022-10-17T22:27:35.049Z,96492.84
2022-10-17T22:30:18.540Z,96492.34
2022-10-17T22:33:01.532Z,96483.47
2022-10-17T22:35:46.555Z,96484.13
2022-10-17T22:38:29.913Z,96482.78
2022-10-17T22:41:12.926Z,96487.78
2022-10-17T22:43:55.931Z,96481.00
2022-10-17T22:46:38.962Z,96488.06
2022-10-17T22:49:22.037Z,96483.69
2022-10-17T22:52:06.645Z,96473.03
2022-10-17T22:54:50.120Z,96480.94
2022-10-17T22:57:33.181Z,96476.75
2022-10-17T23:00:17.178Z,96475.31
2022-10-17T23:03:00.257Z,96474.34
2022-10-17T23:05:43.353Z,96470.47
2022-10-17T23:08:28.664Z,96473.69
2022-10-17T23:11:12.175Z,96469.47
2022-10-17T23:13:55.165Z,96476.94
2022-10-17T23:16:38.169Z,96471.16
2022-10-17T23:19:21.121Z,96469.19
2022-10-17T23:22:04.726Z,96468.22
2022-10-17T23:24:49.081Z,96471.16
2022-10-17T23:27:32.092Z,96473.41
2022-10-17T23:30:15.072Z,96469.53
2022-10-17T23:32:58.056Z,96468.22
2022-10-17T23:35:41.705Z,96467.56
2022-10-17T23:38:24.697Z,96463.84
2022-10-17T23:41:09.326Z,96464.38
2022-10-17T23:43:52.379Z,96463.56
2022-10-17T23:46:35.352Z,96461.94
2022-10-17T23:49:18.309Z,96461.13
2022-10-17T23:52:01.314Z,96452.22
2022-10-17T23:54:44.403Z,96460.59
2022-10-17T23:57:29.199Z,96459.47
